createdAt,value
2023-03-28T00:01:27.213Z,99085.97
2023-03-28T00:03:57.265Z,99089.59
2023-03-28T00:06:26.493Z,99083.22
2023-03-28T00:08:55.882Z,99078.75
2023-03-28T00:11:25.645Z,99092.44
2023-03-28T00:14:01.092Z,99084.50
2023-03-28T00:16:34.341Z,99085.59
2023-03-28T00:19:08.606Z,99088.84
2023-03-28T00:21:40.253Z,99092.25
2023-03-28T00:24:13.965Z,99075.75
2023-03-28T00:26:45.117Z,99083.47
2023-03-28T00:29:21.252Z,99079.00
2023-03-28T00:31:52.285Z,99080.28
2023-03-28T00:34:21.156Z,99079.00
2023-03-28T00:36:50.820Z,99074.09
2023-03-28T00:39:19.532Z,99094.38
2023-03-28T00:41:48.476Z,99083.22
2023-03-28T00:44:47.792Z,99078.50
2023-03-28T00:47:38.872Z,99085.97
2023-03-28T00:50:16.466Z,99093.97
2023-03-28T00:52:54.527Z,99085.03
2023-03-28T00:55:31.908Z,99083.69
2023-03-28T00:58:01.556Z,99079.50
2023-03-28T01:00:32.923Z,99082.97
2023-03-28T01:03:06.836Z,99076.38
2023-03-28T01:05:38.090Z,99084.78
2023-03-28T01:08:15.956Z,99082.88
2023-03-28T01:10:46.403Z,99090.53
2023-03-28T01:13:20.331Z,99076.28
2023-03-28T01:15:51.694Z,99084.13
2023-03-28T01:18:24.464Z,99083.69
2023-03-28T01:21:53.908Z,99093.97
2023-03-28T01:25:23.575Z,99094.81
2023-03-28T01:28:02.312Z,99099.56
2023-03-28T01:31:11.798Z,99105.28
2023-03-28T01:35:06.488Z,99097.75
2023-03-28T01:37:45.951Z,99107.94
2023-03-28T01:40:39.655Z,99095.91
2023-03-28T01:43:28.896Z,99103.38
2023-03-28T01:46:05.921Z,99104.38
2023-03-28T01:48:55.362Z,99112.13
2023-03-28T01:51:41.246Z,99099.47
2023-03-28T01:54:22.866Z,99106.56
2023-03-28T01:57:03.026Z,99109.59
2023-03-28T01:59:43.249Z,99111.94
2023-03-28T02:02:37.057Z,99106.84
2023-03-28T02:05:30.727Z,99115.94
2023-03-28T02:08:03.528Z,99111.84
2023-03-28T02:10:46.907Z,99115.50
2023-03-28T02:13:34.817Z,99112.75
2023-03-28T02:16:27.837Z,99118.81
2023-03-28T02:19:06.456Z,99121.91
2023-03-28T02:22:02.036Z,99123.53
2023-03-28T02:24:57.808Z,99109.97
2023-03-28T02:27:53.042Z,99105.22
2023-03-28T02:30:26.061Z,99104.03
2023-03-28T02:33:01.141Z,99112.78
2023-03-28T02:35:46.998Z,99125.53
2023-03-28T02:38:27.109Z,99120.25
2023-03-28T02:41:10.053Z,99129.19
2023-03-28T02:44:05.003Z,99124.97
2023-03-28T02:46:53.304Z,99131.38
2023-03-28T02:49:49.472Z,99143.44
2023-03-28T02:52:35.282Z,99139.13
2023-03-28T02:55:19.207Z,99141.75
2023-03-28T02:58:10.377Z,99143.41
2023-03-28T03:00:40.794Z,99143.69
2023-03-28T03:03:11.810Z,99141.94
2023-03-28T03:05:41.557Z,99132.84
2023-03-28T03:08:11.728Z,99134.22
2023-03-28T03:10:40.952Z,99129.88
2023-03-28T03:13:09.688Z,99130.06
2023-03-28T03:15:41.474Z,99132.81
2023-03-28T03:18:26.297Z,99123.78
2023-03-28T03:20:55.634Z,99131.00
2023-03-28T03:23:26.579Z,99120.16
2023-03-28T03:25:58.554Z,99123.50
2023-03-28T03:28:55.452Z,99118.50
2023-03-28T03:31:30.186Z,99114.69
2023-03-28T03:34:18.224Z,99108.72
2023-03-28T03:36:55.015Z,99113.38
2023-03-28T03:39:24.562Z,99190.59
2023-03-28T03:41:53.628Z,99199.59
2023-03-28T03:44:22.331Z,99211.41
2023-03-28T03:46:54.206Z,99209.44
2023-03-28T03:49:23.053Z,99216.81
2023-03-28T03:51:52.175Z,99213.91
2023-03-28T03:54:21.990Z,99214.91
2023-03-28T03:56:51.474Z,99219.38
2023-03-28T03:59:21.105Z,99208.63
2023-03-28T04:01:50.973Z,99217.88
2023-03-28T04:04:42.969Z,99218.50
2023-03-28T04:07:25.881Z,99223.91
2023-03-28T04:09:58.042Z,99225.94
2023-03-28T04:12:29.394Z,99222.59
2023-03-28T04:14:58.301Z,99231.53
2023-03-28T04:17:41.510Z,99232.69
2023-03-28T04:20:20.178Z,99240.31
2023-03-28T04:23:09.937Z,99245.41
2023-03-28T04:25:43.740Z,99260.94
2023-03-28T04:28:39.320Z,99254.47
2023-03-28T04:31:12.097Z,99265.34
2023-03-28T04:34:00.509Z,99272.66
2023-03-28T04:36:32.865Z,99282.25
2023-03-28T04:39:05.472Z,99290.81
2023-03-28T04:42:11.720Z,99294.44
2023-03-28T04:44:59.109Z,99291.00
2023-03-28T04:47:28.290Z,99297.41
2023-03-28T04:49:58.444Z,99305.34
2023-03-28T04:52:36.526Z,99304.97
2023-03-28T04:55:07.935Z,99307.31
2023-03-28T04:57:38.515Z,99317.69
2023-03-28T05:00:13.141Z,99329.09
2023-03-28T05:03:01.589Z,99327.09
2023-03-28T05:05:34.653Z,99335.47
2023-03-28T05:08:06.831Z,99336.47
2023-03-28T05:10:36.243Z,99336.63
2023-03-28T05:13:09.200Z,99346.22
2023-03-28T05:16:00.031Z,99350.19
2023-03-28T05:19:00.212Z,99360.38
2023-03-28T05:21:48.756Z,99369.78
2023-03-28T05:24:19.065Z,99372.09
2023-03-28T05:26:47.880Z,99369.59
2023-03-28T05:29:17.721Z,99369.59
2023-03-28T05:31:48.761Z,99377.53
2023-03-28T05:34:29.576Z,99384.50
2023-03-28T05:36:59.220Z,99384.78
2023-03-28T05:39:36.082Z,99386.13
2023-03-28T05:42:08.879Z,99392.09
2023-03-28T05:44:40.178Z,99398.53
2023-03-28T05:47:23.667Z,99399.31
2023-03-28T05:49:54.908Z,99405.91
2023-03-28T05:52:28.909Z,99409.56
2023-03-28T05:54:59.030Z,99416.66
2023-03-28T05:57:27.826Z,99418.31
2023-03-28T05:59:56.895Z,99426.38
2023-03-28T06:02:26.853Z,99416.31
2023-03-28T06:05:00.340Z,99423.69
2023-03-28T06:07:41.554Z,99434.91
2023-03-28T06:10:16.756Z,99433.53
2023-03-28T06:12:56.869Z,99440.63
2023-03-28T06:15:25.852Z,99443.13
2023-03-28T06:17:54.714Z,99447.44
2023-03-28T06:20:23.891Z,99459.00
2023-03-28T06:23:17.882Z,99461.38
2023-03-28T06:25:48.413Z,99460.22
2023-03-28T06:28:19.726Z,99460.50
2023-03-28T06:31:20.893Z,99455.09
2023-03-28T06:33:51.191Z,99458.50
2023-03-28T06:36:22.556Z,99467.09
2023-03-28T06:38:53.580Z,99480.44
2023-03-28T06:41:26.402Z,99477.81
2023-03-28T06:43:55.545Z,99473.81
2023-03-28T06:46:42.905Z,99488.72
2023-03-28T06:49:13.757Z,99494.03
2023-03-28T06:52:01.057Z,99493.06
2023-03-28T06:54:31.139Z,99501.00
2023-03-28T06:57:01.941Z,99504.31
2023-03-28T06:59:31.178Z,99505.94
2023-03-28T07:02:04.897Z,99514.22
2023-03-28T07:04:36.414Z,99511.56
2023-03-28T07:07:05.998Z,99514.34
2023-03-28T07:09:34.856Z,99523.28
2023-03-28T07:12:10.783Z,99520.59
2023-03-28T07:14:40.645Z,99526.56
2023-03-28T07:17:09.526Z,99526.72
2023-03-28T07:19:38.337Z,99522.25
2023-03-28T07:22:07.393Z,99539.94
2023-03-28T07:24:38.209Z,99548.16
2023-03-28T07:27:16.021Z,99543.00
2023-03-28T07:29:47.124Z,99545.47
2023-03-28T07:32:23.924Z,99532.56
2023-03-28T07:34:52.747Z,99540.13
2023-03-28T07:37:25.769Z,99549.44
2023-03-28T07:40:13.160Z,99554.84
2023-03-28T07:42:44.751Z,99558.81
2023-03-28T07:45:13.770Z,99563.31
2023-03-28T07:47:42.921Z,99565.63
2023-03-28T07:50:12.294Z,99571.56
2023-03-28T07:52:45.626Z,99564.25
2023-03-28T07:55:15.791Z,99573.34
2023-03-28T07:57:50.343Z,99564.88
2023-03-28T08:00:38.131Z,99577.91
2023-03-28T08:03:25.768Z,99582.47
2023-03-28T08:05:54.942Z,99586.19
2023-03-28T08:08:25.183Z,99590.16
2023-03-28T08:11:06.761Z,99589.47
2023-03-28T08:13:37.452Z,99593.34
2023-03-28T08:16:18.292Z,99599.09
2023-03-28T08:18:54.381Z,99597.28
2023-03-28T08:21:31.267Z,99607.88
2023-03-28T08:24:00.463Z,99607.47
2023-03-28T08:26:39.202Z,99603.81
2023-03-28T08:29:11.683Z,99608.38
2023-03-28T08:31:40.862Z,99610.91
2023-03-28T08:34:14.385Z,99613.00
2023-03-28T08:36:44.316Z,99619.00
2023-03-28T08:39:29.243Z,99610.47
2023-03-28T08:42:28.843Z,99615.69
2023-03-28T08:45:23.140Z,99614.53
2023-03-28T08:48:07.725Z,99611.03
2023-03-28T08:50:45.659Z,99614.78
2023-03-28T08:53:27.617Z,99616.84
2023-03-28T08:55:59.102Z,99623.38
2023-03-28T08:58:38.848Z,99622.91
2023-03-28T09:01:11.648Z,99631.25
2023-03-28T09:03:41.187Z,99630.34
2023-03-28T09:06:28.837Z,99636.94
2023-03-28T09:09:19.874Z,99642.88
2023-03-28T09:12:12.446Z,99651.31
2023-03-28T09:15:17.352Z,99646.91
2023-03-28T09:18:02.357Z,99651.97
2023-03-28T09:20:43.001Z,99659.34
2023-03-28T09:24:02.106Z,99659.06
2023-03-28T09:26:38.813Z,99651.69
2023-03-28T09:29:18.976Z,99650.22
2023-03-28T09:31:51.841Z,99652.44
2023-03-28T09:34:27.757Z,99658.66
2023-03-28T09:37:15.345Z,99653.34
2023-03-28T09:39:52.303Z,99662.66
2023-03-28T09:42:36.262Z,99657.81
2023-03-28T09:45:40.833Z,99658.97
2023-03-28T09:48:32.030Z,99657.81
2023-03-28T09:51:08.885Z,99666.25
2023-03-28T09:53:39.717Z,99672.28
2023-03-28T09:56:24.188Z,99667.69
2023-03-28T09:58:55.883Z,99663.78
2023-03-28T10:01:42.983Z,99671.34
2023-03-28T10:04:36.952Z,99665.16
2023-03-28T10:07:43.642Z,99661.84
2023-03-28T10:10:25.233Z,99671.91
2023-03-28T10:13:06.033Z,99671.88
2023-03-28T10:15:48.172Z,99675.84
2023-03-28T10:18:36.270Z,99684.97
2023-03-28T10:21:27.054Z,99673.94
2023-03-28T10:24:20.907Z,99673.41
2023-03-28T10:27:01.083Z,99680.28
2023-03-28T10:29:30.219Z,99674.78
2023-03-28T10:31:59.245Z,99677.66
2023-03-28T10:34:35.393Z,99678.88
2023-03-28T10:37:27.308Z,99676.41
2023-03-28T10:40:33.933Z,99681.56
2023-03-28T10:43:37.611Z,99680.38
2023-03-28T10:46:22.467Z,99673.53
2023-03-28T10:49:22.864Z,99680.97
2023-03-28T10:52:23.460Z,99677.72
2023-03-28T10:55:08.264Z,99678.16
2023-03-28T10:58:09.037Z,99678.53
2023-03-28T11:01:02.478Z,99682.03
2023-03-28T11:04:06.711Z,99687.16
2023-03-28T11:06:46.030Z,99691.16
2023-03-28T11:09:32.873Z,99686.41
2023-03-28T11:12:51.348Z,99690.59
2023-03-28T11:15:37.178Z,99677.34
2023-03-28T11:18:35.976Z,99670.72
2023-03-28T11:21:27.947Z,99680.09
2023-03-28T11:24:10.464Z,99670.97
2023-03-28T11:27:15.590Z,99682.97
2023-03-28T11:30:08.392Z,99678.59
2023-03-28T11:32:52.860Z,99674.19
2023-03-28T11:35:31.749Z,99676.88
2023-03-28T11:38:11.615Z,99674.81
2023-03-28T11:40:55.665Z,99669.25
2023-03-28T11:43:43.288Z,99669.66
2023-03-28T11:46:19.704Z,99669.59
2023-03-28T11:49:07.712Z,99655.59
2023-03-28T11:51:45.841Z,99659.31
2023-03-28T11:54:22.354Z,99669.63
2023-03-28T11:56:58.733Z,99662.47
2023-03-28T11:59:53.696Z,99664.59
2023-03-28T12:02:43.407Z,99644.78
2023-03-28T12:05:26.837Z,99659.22
2023-03-28T12:08:11.406Z,99648.66
2023-03-28T12:10:56.717Z,99646.78
2023-03-28T12:13:53.113Z,99648.53
2023-03-28T12:16:38.609Z,99653.88
2023-03-28T12:19:21.875Z,99650.16
2023-03-28T12:22:02.074Z,99652.03
2023-03-28T12:24:55.115Z,99649.88
2023-03-28T12:27:54.896Z,99646.28
2023-03-28T12:30:43.106Z,99645.06
2023-03-28T12:33:28.232Z,99639.19
2023-03-28T12:36:17.855Z,99645.84
2023-03-28T12:38:57.965Z,99629.44
2023-03-28T12:41:39.927Z,99631.16
2023-03-28T12:44:21.052Z,99627.06
2023-03-28T12:46:59.110Z,99632.00
2023-03-28T12:49:42.695Z,99631.66
2023-03-28T12:52:21.796Z,99643.44
2023-03-28T12:55:02.402Z,99646.38
2023-03-28T12:57:47.637Z,99647.53
2023-03-28T13:00:48.694Z,99643.53
2023-03-28T13:03:52.601Z,99648.34
2023-03-28T13:06:59.588Z,99638.94
2023-03-28T13:09:48.481Z,99651.03
2023-03-28T13:12:41.787Z,99647.78
2023-03-28T13:15:33.009Z,99646.28
2023-03-28T13:18:33.941Z,99648.31
2023-03-28T13:21:08.475Z,99650.09
2023-03-28T13:23:48.226Z,99660.00
2023-03-28T13:26:19.853Z,99653.72
2023-03-28T13:29:21.250Z,99668.88
2023-03-28T13:31:53.129Z,99653.97
2023-03-28T13:34:29.310Z,99652.50
2023-03-28T13:36:58.030Z,99667.56
2023-03-28T13:39:27.747Z,99662.28
2023-03-28T13:42:32.881Z,99668.03
2023-03-28T13:45:15.759Z,99666.16
2023-03-28T13:47:44.888Z,99667.00
2023-03-28T13:50:38.083Z,99663.28
2023-03-28T13:53:59.517Z,99663.56
2023-03-28T13:56:36.951Z,99660.63
2023-03-28T13:59:18.174Z,99652.97
2023-03-28T14:02:03.428Z,99656.50
2023-03-28T14:04:37.687Z,99663.50
2023-03-28T14:07:14.047Z,99652.25
2023-03-28T14:09:44.230Z,99643.63
2023-03-28T14:12:17.706Z,99659.09
2023-03-28T14:14:51.267Z,99660.81
2023-03-28T14:17:27.370Z,99654.34
2023-03-28T14:19:59.785Z,99652.88
2023-03-28T14:22:49.457Z,99653.06
2023-03-28T14:25:56.734Z,99655.81
2023-03-28T14:28:30.954Z,99657.28
2023-03-28T14:31:04.768Z,99660.09
2023-03-28T14:33:41.972Z,99658.47
2023-03-28T14:36:18.626Z,99658.06
2023-03-28T14:38:47.619Z,99665.31
2023-03-28T14:41:21.710Z,99656.88
2023-03-28T14:44:39.644Z,99667.38
2023-03-28T14:47:14.376Z,99656.50
2023-03-28T14:49:46.002Z,99657.34
2023-03-28T14:52:17.420Z,99658.56
2023-03-28T14:54:49.394Z,99649.34
2023-03-28T14:57:19.767Z,99657.34
2023-03-28T14:59:52.494Z,99655.28
2023-03-28T15:02:48.312Z,99656.31
2023-03-28T15:05:23.262Z,99658.91
2023-03-28T15:07:58.795Z,99666.31
2023-03-28T15:10:29.264Z,99665.25
2023-03-28T15:13:08.813Z,99668.16
2023-03-28T15:15:43.442Z,99668.38
2023-03-28T15:18:17.752Z,99676.19
2023-03-28T15:20:55.482Z,99667.97
2023-03-28T15:23:29.286Z,99669.22
2023-03-28T15:26:04.418Z,99665.97
2023-03-28T15:28:38.849Z,99663.25
2023-03-28T15:31:09.512Z,99658.91
2023-03-28T15:33:38.371Z,99659.72
2023-03-28T15:36:17.561Z,99653.59
2023-03-28T15:42:40.662Z,99661.34
2023-03-28T15:45:39.044Z,99668.13
2023-03-28T15:48:20.440Z,99667.09
2023-03-28T15:51:07.749Z,99661.78
2023-03-28T15:53:43.442Z,99667.72
2023-03-28T15:56:23.305Z,99664.22
2023-03-28T15:58:52.998Z,99669.75
2023-03-28T16:01:26.436Z,99680.56
2023-03-28T16:04:28.757Z,99684.44
2023-03-28T16:07:13.740Z,99691.97
2023-03-28T16:09:46.790Z,99697.72
2023-03-28T16:12:16.797Z,99698.28
2023-03-28T16:14:49.987Z,99693.56
2023-03-28T16:17:26.264Z,99689.44
2023-03-28T16:20:33.680Z,99682.09
2023-03-28T16:23:07.233Z,99682.31
2023-03-28T16:25:38.750Z,99686.66
2023-03-28T16:28:07.763Z,99678.88
2023-03-28T16:31:08.084Z,99685.00
2023-03-28T16:33:39.027Z,99673.09
2023-03-28T16:36:09.478Z,99671.06
2023-03-28T16:38:45.434Z,99678.38
2023-03-28T16:41:16.164Z,99673.81
2023-03-28T16:44:00.255Z,99677.91
2023-03-28T16:46:29.700Z,99673.59
2023-03-28T16:49:07.039Z,99671.34
2023-03-28T16:51:44.467Z,99677.03
2023-03-28T16:54:19.809Z,99681.56
2023-03-28T16:56:52.768Z,99669.22
2023-03-28T16:59:23.563Z,99665.28
2023-03-28T17:01:56.333Z,99666.31
2023-03-28T17:04:32.957Z,99674.03
2023-03-28T17:07:06.693Z,99674.75
2023-03-28T17:09:36.451Z,99673.03
2023-03-28T17:12:07.457Z,99678.34
2023-03-28T17:14:36.767Z,99672.16
2023-03-28T17:17:05.566Z,99668.03
2023-03-28T17:19:34.932Z,99673.09
2023-03-28T17:22:03.789Z,99671.50
2023-03-28T17:24:33.082Z,99668.56
2023-03-28T17:27:02.169Z,99665.63
2023-03-28T17:29:33.074Z,99664.72
2023-03-28T17:32:03.196Z,99672.06
2023-03-28T17:34:33.057Z,99667.97
2023-03-28T17:37:02.328Z,99672.50
2023-03-28T17:39:36.777Z,99667.81
2023-03-28T17:42:07.242Z,99674.41
2023-03-28T17:44:38.624Z,99678.75
2023-03-28T17:47:07.715Z,99677.13
2023-03-28T17:49:37.603Z,99677.59
2023-03-28T17:52:10.602Z,99682.72
2023-03-28T17:54:41.145Z,99684.94
2023-03-28T17:57:14.482Z,99676.41
2023-03-28T17:59:44.927Z,99676.81
2023-03-28T18:02:14.357Z,99672.56
2023-03-28T18:04:46.243Z,99672.13
2023-03-28T18:07:22.324Z,99672.75
2023-03-28T18:09:51.204Z,99673.41
2023-03-28T18:12:21.558Z,99667.84
2023-03-28T18:14:53.935Z,99668.06
2023-03-28T18:17:23.678Z,99668.41
2023-03-28T18:19:52.571Z,99671.28
2023-03-28T18:22:21.865Z,99668.16
2023-03-28T18:24:53.711Z,99666.28
2023-03-28T18:27:22.856Z,99678.19
2023-03-28T18:29:53.310Z,99677.06
2023-03-28T18:32:22.540Z,99676.94
2023-03-28T18:34:51.419Z,99677.25
2023-03-28T18:37:20.323Z,99674.78
2023-03-28T18:39:49.260Z,99674.03
2023-03-28T18:42:18.121Z,99682.38
2023-03-28T18:44:47.510Z,99675.31
2023-03-28T18:47:19.038Z,99675.63
2023-03-28T18:49:49.870Z,99676.94
2023-03-28T18:52:19.521Z,99682.56
2023-03-28T18:54:48.886Z,99680.28
2023-03-28T18:57:22.970Z,99678.13
2023-03-28T18:59:52.962Z,99684.81
2023-03-28T19:02:24.788Z,99677.19
2023-03-28T19:05:02.787Z,99682.22
2023-03-28T19:07:31.667Z,99687.00
2023-03-28T19:10:00.535Z,99683.16
2023-03-28T19:12:31.511Z,99685.28
2023-03-28T19:15:00.961Z,99683.16
2023-03-28T19:17:32.243Z,99674.00
2023-03-28T19:20:01.957Z,99677.19
2023-03-28T19:22:30.909Z,99687.34
2023-03-28T19:25:00.414Z,99678.34
2023-03-28T19:27:29.240Z,99679.81
2023-03-28T19:29:58.185Z,99677.88
2023-03-28T19:32:28.627Z,99681.22
2023-03-28T19:35:00.022Z,99673.91
2023-03-28T19:37:44.455Z,99683.84
2023-03-28T19:40:16.627Z,99679.25
2023-03-28T19:42:45.458Z,99686.59
2023-03-28T19:45:14.433Z,99684.25
2023-03-28T19:47:48.119Z,99682.91
2023-03-28T19:50:18.979Z,99678.81
2023-03-28T19:52:47.792Z,99674.41
2023-03-28T19:55:17.278Z,99667.28
2023-03-28T19:57:45.971Z,99670.72
2023-03-28T20:00:17.123Z,99665.78
2023-03-28T20:02:46.167Z,99667.94
2023-03-28T20:05:15.119Z,99675.28
2023-03-28T20:07:45.420Z,99671.75
2023-03-28T20:10:14.229Z,99664.44
2023-03-28T20:12:42.934Z,99661.41
2023-03-28T20:15:12.657Z,99664.44
2023-03-28T20:17:41.493Z,99665.06
2023-03-28T20:20:11.512Z,99659.72
2023-03-28T20:22:40.312Z,99654.59
2023-03-28T20:25:11.130Z,99647.47
2023-03-28T20:27:40.063Z,99642.13
2023-03-28T20:30:11.274Z,99634.66
2023-03-28T20:32:40.080Z,99631.84
2023-03-28T20:35:10.035Z,99626.38
2023-03-28T20:37:38.745Z,99627.81
2023-03-28T20:40:11.620Z,99622.19
2023-03-28T20:42:41.162Z,99622.84
2023-03-28T20:45:14.195Z,99611.09
2023-03-28T20:47:43.194Z,99607.34
2023-03-28T20:50:12.905Z,99599.81
2023-03-28T20:52:42.555Z,99610.88
2023-03-28T20:55:13.457Z,99601.88
2023-03-28T20:57:42.458Z,99608.19
2023-03-28T21:00:15.002Z,99604.47
2023-03-28T21:02:46.294Z,99594.84
2023-03-28T21:05:15.837Z,99597.88
2023-03-28T21:07:44.524Z,99600.84
2023-03-28T21:10:18.125Z,99595.19
2023-03-28T21:12:47.472Z,99597.56
2023-03-28T21:15:17.026Z,99606.19
2023-03-28T21:17:49.158Z,99601.19
2023-03-28T21:20:19.390Z,99596.91
2023-03-28T21:22:48.160Z,99601.72
2023-03-28T21:25:19.167Z,99605.00
2023-03-28T21:27:47.988Z,99600.19
2023-03-28T21:30:17.052Z,99602.13
2023-03-28T21:32:47.798Z,99598.97
2023-03-28T21:35:16.824Z,99604.28
2023-03-28T21:37:45.632Z,99597.56
2023-03-28T21:40:14.388Z,99598.59
2023-03-28T21:42:44.649Z,99601.28
2023-03-28T21:45:14.111Z,99589.41
2023-03-28T21:47:44.882Z,99593.16
2023-03-28T21:50:15.290Z,99593.69
2023-03-28T21:52:44.146Z,99594.78
2023-03-28T21:55:12.890Z,99599.63
2023-03-28T21:57:41.582Z,99604.41
2023-03-28T22:00:16.320Z,99601.41
2023-03-28T22:02:45.744Z,99600.91
2023-03-28T22:05:26.700Z,99594.75
2023-03-28T22:07:57.803Z,99593.25
2023-03-28T22:10:27.554Z,99586.19
2023-03-28T22:12:58.952Z,99576.63
2023-03-28T22:15:29.256Z,99576.69
2023-03-28T22:17:59.248Z,99567.75
2023-03-28T22:20:29.456Z,99570.06
2023-03-28T22:23:00.625Z,99567.09
2023-03-28T22:25:35.803Z,99573.91
2023-03-28T22:28:06.782Z,99566.44
2023-03-28T22:30:39.332Z,99564.75
2023-03-28T22:33:10.701Z,99563.41
2023-03-28T22:35:39.639Z,99558.59
2023-03-28T22:38:09.000Z,99566.66
2023-03-28T22:40:37.745Z,99563.66
2023-03-28T22:43:06.642Z,99557.69
2023-03-28T22:45:37.322Z,99554.25
2023-03-28T22:48:14.301Z,99554.09
2023-03-28T22:50:45.431Z,99552.75
2023-03-28T22:53:15.637Z,99546.09
2023-03-28T22:55:45.618Z,99545.91
2023-03-28T22:58:14.478Z,99546.94
2023-03-28T23:00:44.883Z,99544.78
2023-03-28T23:03:13.770Z,99538.03
2023-03-28T23:05:42.557Z,99546.09
2023-03-28T23:08:12.237Z,99532.84
2023-03-28T23:10:42.485Z,99538.25
2023-03-28T23:13:11.513Z,99544.59
2023-03-28T23:15:40.210Z,99533.03
2023-03-28T23:18:11.040Z,99534.47
2023-03-28T23:20:39.807Z,99533.19
2023-03-28T23:23:08.933Z,99532.69
2023-03-28T23:25:39.114Z,99533.19
2023-03-28T23:28:08.845Z,99541.25
2023-03-28T23:30:39.605Z,99540.63
2023-03-28T23:33:09.834Z,99533.31
2023-03-28T23:35:38.714Z,99532.66
2023-03-28T23:38:07.495Z,99526.66
2023-03-28T23:40:36.182Z,99532.72
2023-03-28T23:43:05.013Z,99529.38
2023-03-28T23:45:34.303Z,99525.75
2023-03-28T23:48:03.234Z,99530.09
2023-03-28T23:50:34.098Z,99527.13
2023-03-28T23:53:03.109Z,99519.97
2023-03-28T23:55:34.553Z,99519.13
2023-03-28T23:58:04.630Z,99507.22
